Main page
METAR-TAF:

METAR-TAF

Airports :

Liège Airport

Liège, Belgium

latitude: 50-39N, longitude: 005-27E, elevation: 186 m

Current weather observation

The report was made 32 minutes ago, at 15:20 UTC
Wind 2 kt from variable directions
Temperature 15°C
Humidity 33%
Pressure 1022 hPa
Visibility 10 km or more
no clouds below 1500 m and no cumulonimbus

METAR: EBLG 041520Z VRB02KT CAVOK 15/M01 Q1022 NOSIG

Time: 17:52 (15:52 UTC)

Forecast

The report was made 4 hours and 52 minutes ago, at 11:00 UTC
Forecast valid from 04 at 12 UTC to 05 at 18 UTC
Wind 5 kt from the South
Visibility 10 km or more
Few clouds at a height of 4500 ft

TAF: EBLG 041100Z 0412/0518 17005KT 9999 FEW045

Weather observations and forecasts of more than 4000 airports (METAR and TAF reports).

The available stations are represented by yellow and red dots on the map.

Hover mouse over dot to see the name of the station.

Then click to see weather observations and forecasts.

To change the map : click on the green buttons with a black cross to zoom in, on the green button with a dash to zoom out, or on the green arrows for adjacent maps.


METAR-TAF: